Time;durP1;ratioP1;P1;durP2;ratioP2;P2;SDS_P1;SDS_P2;PMS_P1;PMS_P2;Temp;Humidity;BMP_temperature;BMP_pressure;BME280_temperature;BME280_humidity;BME280_pressure;Samples;Min_cycle;Max_cycle;Signal;HPM_P1;HPM_P2
2021/01/30 00:00:19;;;;;;;8.63;3.80;;;7.60;99.90;;;;;;5060105;28;20184;-66
2021/01/30 00:02:44;;;;;;;5.70;3.90;;;7.60;99.90;;;;;;5068563;28;20184;-65
2021/01/30 00:05:11;;;;;;;5.27;3.77;;;7.60;99.90;;;;;;5055986;28;20425;-66
2021/01/30 00:07:36;;;;;;;4.10;3.70;;;7.50;99.90;;;;;;5059607;28;20242;-65
2021/01/30 00:10:03;;;;;;;4.07;3.67;;;7.50;99.90;;;;;;5059069;28;20967;-65
2021/01/30 00:12:29;;;;;;;5.63;4.07;;;7.50;99.90;;;;;;5055254;28;20592;-65
2021/01/30 00:14:54;;;;;;;7.30;4.43;;;7.50;99.90;;;;;;5053679;28;20434;-65
2021/01/30 00:17:21;;;;;;;5.97;4.17;;;7.50;99.90;;;;;;5057734;28;20543;-65
2021/01/30 00:19:46;;;;;;;4.53;4.13;;;7.50;99.90;;;;;;5057413;28;20258;-65
2021/01/30 00:22:15;;;;;;;8.00;4.77;;;7.50;99.90;;;;;;5056960;28;20513;-65
2021/01/30 00:24:44;;;;;;;5.87;5.03;;;7.50;99.90;;;;;;5058560;28;20221;-65
2021/01/30 00:27:13;;;;;;;6.47;5.13;;;7.40;99.90;;;;;;5054064;28;20458;-65
2021/01/30 00:29:39;;;;;;;7.37;5.30;;;7.40;99.90;;;;;;5054014;28;20426;-65
2021/01/30 00:32:07;;;;;;;7.27;6.40;;;7.40;99.90;;;;;;5054553;28;20843;-65
2021/01/30 00:34:33;;;;;;;6.87;6.07;;;7.40;99.90;;;;;;5053448;28;20470;-65
2021/01/30 00:37:09;;;;;;;7.00;6.30;;;7.30;99.90;;;;;;5057559;28;20487;-65
2021/01/30 00:39:35;;;;;;;7.13;5.97;;;7.30;99.90;;;;;;5060636;28;20458;-65
2021/01/30 00:42:01;;;;;;;7.00;6.23;;;7.30;99.90;;;;;;5062146;28;20430;-65
2021/01/30 00:44:29;;;;;;;8.30;7.50;;;7.30;99.90;;;;;;5054263;28;20446;-65
2021/01/30 00:46:55;;;;;;;10.37;8.60;;;7.30;99.90;;;;;;5054978;28;20454;-65
2021/01/30 00:49:21;;;;;;;11.83;8.83;;;7.20;99.90;;;;;;5054327;28;20445;-65
2021/01/30 00:51:46;;;;;;;10.47;9.50;;;7.20;99.90;;;;;;5062718;28;20191;-65
2021/01/30 00:54:12;;;;;;;11.70;9.83;;;7.20;99.90;;;;;;5062304;28;20211;-65
2021/01/30 00:56:37;;;;;;;10.43;9.33;;;7.10;99.90;;;;;;5056698;28;20180;-65
2021/01/30 00:59:03;;;;;;;13.90;10.97;;;7.20;99.90;;;;;;5054541;28;20675;-65
2021/01/30 01:01:38;;;;;;;14.10;11.30;;;7.10;99.90;;;;;;5053527;28;20732;-65
2021/01/30 01:04:04;;;;;;;14.67;13.20;;;7.10;99.90;;;;;;5058993;28;20265;-65
2021/01/30 01:06:29;;;;;;;17.83;12.60;;;7.00;99.90;;;;;;5052431;28;20486;-65
2021/01/30 01:08:55;;;;;;;17.07;15.27;;;7.00;99.90;;;;;;5054649;28;20455;-66
2021/01/30 01:11:20;;;;;;;15.43;13.80;;;7.00;99.90;;;;;;5054286;28;20180;-65
2021/01/30 01:13:46;;;;;;;16.43;14.73;;;7.00;99.90;;;;;;5058280;28;20212;-67
2021/01/30 01:16:11;;;;;;;15.90;14.17;;;7.00;99.90;;;;;;5053656;28;20183;-65
2021/01/30 01:18:37;;;;;;;12.73;11.47;;;6.90;99.90;;;;;;5053911;28;20215;-65
2021/01/30 01:21:02;;;;;;;16.63;14.23;;;6.90;99.90;;;;;;5057810;28;20241;-65
2021/01/30 01:23:28;;;;;;;16.07;14.40;;;6.90;99.90;;;;;;5051951;28;20566;-65
2021/01/30 01:25:54;;;;;;;18.73;16.03;;;6.90;99.90;;;;;;5054228;28;20264;-65
2021/01/30 01:28:19;;;;;;;17.93;15.60;;;6.80;99.90;;;;;;5062709;28;21792;-65
2021/01/30 01:30:45;;;;;;;17.43;15.63;;;6.70;99.90;;;;;;5052878;28;20180;-65
2021/01/30 01:33:10;;;;;;;14.77;13.27;;;6.60;99.90;;;;;;5052069;28;20675;-65
2021/01/30 01:35:36;;;;;;;13.43;12.13;;;6.50;99.90;;;;;;5052593;28;20565;-65
2021/01/30 01:38:01;;;;;;;13.20;11.80;;;6.50;99.90;;;;;;5052396;28;20698;-65
2021/01/30 01:40:34;;;;;;;11.87;10.77;;;6.40;99.90;;;;;;5053246;28;20193;-65
2021/01/30 01:43:01;;;;;;;12.37;11.13;;;6.30;99.90;;;;;;5053373;28;20221;-65
2021/01/30 01:45:28;;;;;;;15.90;13.80;;;6.20;99.90;;;;;;5051675;28;20421;-65
2021/01/30 01:47:54;;;;;;;15.23;13.83;;;6.10;99.90;;;;;;5052659;28;20431;-65
2021/01/30 01:50:25;;;;;;;16.73;15.10;;;6.10;99.90;;;;;;5057637;28;20517;-65
2021/01/30 01:52:56;;;;;;;20.07;15.40;;;6.00;99.90;;;;;;5056798;28;20954;-65
2021/01/30 01:55:22;;;;;;;17.20;15.50;;;5.90;99.90;;;;;;5054341;28;20509;-65
2021/01/30 01:57:54;;;;;;;18.57;16.57;;;5.90;99.90;;;;;;5052063;28;20623;-65
2021/01/30 02:00:22;;;;;;;21.30;16.73;;;5.80;99.90;;;;;;5057164;28;20476;-65
2021/01/30 02:02:50;;;;;;;20.07;17.60;;;5.80;99.90;;;;;;5054129;28;20469;-65
2021/01/30 02:05:25;;;;;;;17.20;15.47;;;5.80;99.90;;;;;;5057084;28;20502;-65
2021/01/30 02:07:52;;;;;;;15.97;14.37;;;5.70;99.90;;;;;;5055653;28;20426;-65
2021/01/30 02:10:21;;;;;;;16.80;15.00;;;5.60;99.90;;;;;;5057283;28;20480;-65
2021/01/30 02:12:49;;;;;;;17.70;15.00;;;5.60;99.90;;;;;;5056836;28;20422;-65
2021/01/30 02:15:18;;;;;;;16.70;14.80;;;5.50;99.90;;;;;;5054468;28;20463;-65
2021/01/30 02:17:57;;;;;;;17.70;14.90;;;5.40;99.90;;;;;;5064919;28;20433;-65
2021/01/30 02:20:23;;;;;;;20.37;16.20;;;5.40;99.90;;;;;;5057641;28;20465;-65
2021/01/30 02:23:15;;;;;;;24.60;17.50;;;5.30;99.90;;;;;;5055102;28;20763;-65
2021/01/30 02:26:15;;;;;;;24.50;18.43;;;5.30;99.90;;;;;;5058603;28;20271;-65
2021/01/30 02:29:03;;;;;;;17.93;15.20;;;5.20;99.90;;;;;;5008633;28;20431;-66
2021/01/30 02:31:59;;;;;;;20.73;16.33;;;5.20;99.90;;;;;;5055992;28;20462;-65
2021/01/30 02:35:02;;;;;;;21.70;16.43;;;5.10;99.90;;;;;;5054009;28;20497;-66
2021/01/30 02:37:39;;;;;;;22.87;16.57;;;5.10;99.90;;;;;;5051101;28;20525;-65
2021/01/30 02:40:11;;;;;;;22.80;17.10;;;5.10;99.90;;;;;;5062091;28;20935;-65
2021/01/30 02:42:42;;;;;;;18.33;16.40;;;5.00;99.90;;;;;;5052376;28;20465;-66
2021/01/30 02:45:07;;;;;;;20.17;15.00;;;5.00;99.90;;;;;;5062254;28;20860;-66
2021/01/30 02:47:37;;;;;;;15.20;12.93;;;5.00;99.90;;;;;;5055125;28;20549;-65
2021/01/30 02:50:09;;;;;;;13.40;11.93;;;5.00;99.90;;;;;;5056952;28;20360;-65
2021/01/30 02:52:37;;;;;;;16.53;13.87;;;4.90;99.90;;;;;;5060301;28;20421;-65
2021/01/30 02:55:08;;;;;;;14.87;13.47;;;4.90;99.90;;;;;;5057802;28;20516;-65
2021/01/30 02:57:37;;;;;;;15.83;13.87;;;4.90;99.90;;;;;;5059855;28;20421;-66
2021/01/30 03:00:07;;;;;;;13.77;12.33;;;4.80;99.90;;;;;;5056110;28;20438;-65
2021/01/30 03:02:33;;;;;;;14.57;12.97;;;4.80;99.90;;;;;;5056839;28;20530;-65
2021/01/30 03:05:00;;;;;;;13.73;12.43;;;4.80;99.90;;;;;;5063445;28;20870;-65
2021/01/30 03:07:54;;;;;;;14.33;12.43;;;4.70;99.90;;;;;;5056260;28;20200;-66
2021/01/30 03:10:44;;;;;;;15.73;12.23;;;4.70;99.90;;;;;;5057563;28;20509;-65
2021/01/30 03:13:29;;;;;;;14.40;13.00;;;4.70;99.90;;;;;;5057169;28;20946;-65
2021/01/30 03:16:17;;;;;;;15.73;12.60;;;4.60;99.90;;;;;;5058278;28;20573;-65
2021/01/30 03:18:55;;;;;;;14.30;11.93;;;4.60;99.90;;;;;;5055551;28;20518;-65
2021/01/30 03:21:23;;;;;;;16.97;13.30;;;4.50;99.90;;;;;;5062149;28;20826;-64
2021/01/30 03:23:49;;;;;;;14.30;12.60;;;4.50;99.90;;;;;;5059670;28;20427;-64
2021/01/30 03:26:18;;;;;;;14.07;12.57;;;4.40;99.90;;;;;;5056023;28;20549;-64
2021/01/30 03:28:46;;;;;;;14.37;12.93;;;4.40;99.90;;;;;;5061823;28;20426;-65
2021/01/30 03:31:11;;;;;;;15.23;12.17;;;4.30;99.90;;;;;;5056152;28;20536;-64
2021/01/30 03:33:37;;;;;;;15.33;13.73;;;4.20;99.90;;;;;;5055916;28;20528;-64
2021/01/30 03:36:03;;;;;;;17.43;14.57;;;4.20;99.90;;;;;;5062418;28;20255;-64
2021/01/30 03:38:28;;;;;;;20.40;18.20;;;4.10;99.90;;;;;;5056404;28;20177;-64
2021/01/30 03:40:54;;;;;;;23.73;20.03;;;4.10;99.90;;;;;;5056706;28;20434;-64
2021/01/30 03:43:19;;;;;;;21.07;18.87;;;4.10;99.90;;;;;;5061701;28;20203;-65
2021/01/30 03:45:45;;;;;;;21.87;19.60;;;4.00;99.90;;;;;;5060902;28;20609;-64
2021/01/30 03:48:10;;;;;;;22.93;19.70;;;4.00;99.90;;;;;;5057273;28;20218;-64
2021/01/30 03:50:36;;;;;;;23.00;19.10;;;3.90;99.90;;;;;;5056494;28;20893;-64
2021/01/30 03:53:05;;;;;;;22.13;19.23;;;3.90;99.90;;;;;;5058005;28;20167;-64
2021/01/30 03:55:31;;;;;;;24.17;20.03;;;3.80;99.90;;;;;;5057140;28;20175;-64
2021/01/30 03:57:57;;;;;;;28.10;22.40;;;3.80;99.90;;;;;;5059358;28;20430;-65
2021/01/30 04:00:24;;;;;;;21.37;18.67;;;3.70;99.90;;;;;;5059290;28;20251;-65
2021/01/30 04:02:49;;;;;;;19.90;17.07;;;3.70;99.90;;;;;;5054998;28;20164;-65
2021/01/30 04:05:18;;;;;;;16.40;14.70;;;3.70;99.90;;;;;;5055116;28;20799;-65
2021/01/30 04:07:44;;;;;;;14.30;12.53;;;3.60;99.90;;;;;;5054702;28;20203;-66
2021/01/30 04:10:14;;;;;;;14.53;11.70;;;3.60;99.90;;;;;;5055374;28;20510;-66
2021/01/30 04:12:40;;;;;;;15.77;12.63;;;3.50;99.90;;;;;;5055376;28;20419;-66
2021/01/30 04:15:09;;;;;;;19.00;13.10;;;3.40;99.90;;;;;;5058872;28;20434;-65
2021/01/30 04:17:35;;;;;;;19.20;14.97;;;3.40;99.90;;;;;;5055384;28;20442;-65
2021/01/30 04:20:00;;;;;;;20.47;16.97;;;3.40;99.90;;;;;;5054583;28;20437;-65
2021/01/30 04:22:26;;;;;;;21.27;18.93;;;3.30;99.90;;;;;;5053325;28;20180;-65
2021/01/30 04:24:51;;;;;;;20.87;16.53;;;3.30;99.90;;;;;;5055920;28;20185;-68
2021/01/30 04:27:17;;;;;;;26.63;19.40;;;3.30;99.90;;;;;;5060067;28;20195;-65
2021/01/30 04:29:43;;;;;;;25.50;22.03;;;3.20;99.90;;;;;;5058956;28;20172;-65
2021/01/30 04:32:09;;;;;;;29.47;22.83;;;3.20;99.90;;;;;;5057842;28;20173;-65
2021/01/30 04:34:34;;;;;;;28.17;24.00;;;3.20;99.90;;;;;;5065067;28;20935;-65
2021/01/30 04:37:00;;;;;;;29.80;24.90;;;3.10;99.90;;;;;;5056592;28;20773;-65
2021/01/30 04:39:25;;;;;;;29.80;24.23;;;3.10;99.90;;;;;;5056710;28;20203;-65
2021/01/30 04:42:00;;;;;;;31.90;25.73;;;3.00;99.90;;;;;;5058374;28;20198;-65
2021/01/30 04:44:44;;;;;;;32.13;24.73;;;3.00;99.90;;;;;;5057147;28;20261;-65
2021/01/30 04:47:17;;;;;;;31.07;23.33;;;2.90;99.90;;;;;;5058902;28;20853;-65
2021/01/30 04:49:49;;;;;;;26.70;21.30;;;2.90;99.90;;;;;;5055211;28;20429;-66
2021/01/30 04:52:42;;;;;;;22.50;19.20;;;2.90;99.90;;;;;;5054253;28;20496;-65
2021/01/30 04:55:31;;;;;;;25.00;20.30;;;2.80;99.90;;;;;;5059194;28;20422;-65
2021/01/30 04:58:12;;;;;;;24.23;20.47;;;2.70;99.90;;;;;;5054852;28;20957;-65
2021/01/30 05:00:40;;;;;;;27.40;21.97;;;2.60;99.90;;;;;;5063385;28;20504;-65
2021/01/30 05:03:23;;;;;;;26.23;21.57;;;2.60;99.90;;;;;;5054008;28;20419;-65
2021/01/30 05:05:53;;;;;;;26.13;19.90;;;2.50;99.90;;;;;;5057901;28;20417;-65
2021/01/30 05:08:27;;;;;;;23.57;20.10;;;2.50;99.90;;;;;;5060806;28;20584;-65
2021/01/30 05:10:58;;;;;;;25.37;19.90;;;2.40;99.90;;;;;;5052796;28;20427;-66
2021/01/30 05:13:27;;;;;;;25.70;19.63;;;2.40;99.90;;;;;;5052916;28;20424;-65
2021/01/30 05:16:03;;;;;;;25.90;20.83;;;2.30;99.90;;;;;;5053022;28;20419;-65
2021/01/30 05:18:42;;;;;;;24.03;21.00;;;2.40;99.90;;;;;;5055612;28;20423;-65
2021/01/30 05:21:19;;;;;;;24.93;19.87;;;2.40;99.90;;;;;;5053123;28;20520;-65
2021/01/30 05:23:51;;;;;;;25.17;21.33;;;2.40;99.90;;;;;;5054425;28;20422;-65
2021/01/30 05:26:37;;;;;;;27.30;23.47;;;2.30;99.90;;;;;;5051140;28;20481;-65
2021/01/30 05:29:20;;;;;;;29.17;24.27;;;2.30;99.90;;;;;;5058234;28;20510;-65
2021/01/30 05:31:51;;;;;;;32.40;26.47;;;2.30;99.90;;;;;;5052967;28;20504;-65
2021/01/30 05:34:50;;;;;;;31.37;25.10;;;2.20;99.90;;;;;;5056725;28;20870;-65
2021/01/30 05:37:22;;;;;;;33.43;23.63;;;2.20;99.90;;;;;;5006874;28;20479;-65
2021/01/30 05:39:53;;;;;;;37.13;27.70;;;2.10;99.90;;;;;;5050345;28;20477;-65
2021/01/30 05:42:34;;;;;;;38.17;30.10;;;2.10;99.90;;;;;;5058846;28;20418;-65
2021/01/30 05:45:24;;;;;;;39.97;31.30;;;2.10;99.90;;;;;;5060308;28;20604;-65
2021/01/30 05:47:51;;;;;;;39.70;34.00;;;2.10;99.90;;;;;;5052848;28;20480;-65
2021/01/30 05:50:33;;;;;;;45.23;35.23;;;2.10;99.90;;;;;;5057255;28;20844;-65
2021/01/30 05:53:00;;;;;;;50.43;36.30;;;2.00;99.90;;;;;;5053043;28;20418;-65
2021/01/30 05:55:28;;;;;;;48.50;34.67;;;2.00;99.90;;;;;;5058882;28;20516;-65
2021/01/30 05:57:56;;;;;;;48.47;34.97;;;2.00;99.90;;;;;;5052447;28;20503;-65
2021/01/30 06:00:23;;;;;;;51.43;34.50;;;2.00;99.90;;;;;;5076121;28;20436;-65
2021/01/30 06:03:08;;;;;;;48.57;32.57;;;2.00;99.90;;;;;;5053971;28;20436;-65
2021/01/30 06:05:42;;;;;;;53.77;38.20;;;1.90;99.90;;;;;;5060035;28;20430;-65
2021/01/30 06:08:30;;;;;;;51.30;35.93;;;1.90;99.90;;;;;;5052446;28;20528;-65
2021/01/30 06:11:08;;;;;;;52.53;38.10;;;1.90;99.90;;;;;;5053116;28;20426;-65
2021/01/30 06:13:33;;;;;;;49.17;36.83;;;1.90;99.90;;;;;;5058160;28;20802;-65
2021/01/30 06:16:02;;;;;;;44.43;30.70;;;1.90;99.90;;;;;;5057005;28;20694;-65
2021/01/30 06:18:34;;;;;;;45.03;33.57;;;1.90;99.90;;;;;;5053470;28;20188;-65
2021/01/30 06:21:14;;;;;;;40.17;29.60;;;1.80;99.90;;;;;;5060005;28;20430;-65
2021/01/30 06:24:01;;;;;;;37.17;26.93;;;1.80;99.90;;;;;;5050004;28;20452;-65
2021/01/30 06:26:26;;;;;;;38.30;28.93;;;1.70;99.90;;;;;;5062211;28;21271;-65
2021/01/30 06:29:04;;;;;;;37.97;27.30;;;1.70;99.90;;;;;;5053358;28;20434;-66
2021/01/30 06:31:42;;;;;;;35.30;28.17;;;1.70;99.90;;;;;;5052649;28;20184;-66
2021/01/30 06:34:29;;;;;;;37.97;28.23;;;1.70;99.90;;;;;;5051739;28;20480;-66
2021/01/30 06:36:57;;;;;;;32.40;26.83;;;1.70;99.90;;;;;;5055701;28;20433;-66
2021/01/30 06:39:32;;;;;;;31.50;24.57;;;1.70;99.90;;;;;;5052795;28;20459;-66
2021/01/30 06:42:07;;;;;;;34.73;23.67;;;1.70;99.90;;;;;;5055696;28;20430;-67
2021/01/30 06:44:33;;;;;;;36.20;27.47;;;1.70;99.90;;;;;;5053099;28;20442;-66
2021/01/30 06:47:11;;;;;;;29.20;22.43;;;1.70;99.90;;;;;;5052369;28;20466;-66
2021/01/30 06:49:41;;;;;;;30.47;27.07;;;1.60;99.90;;;;;;5057228;28;21288;-66
2021/01/30 06:52:27;;;;;;;30.10;24.60;;;1.60;99.90;;;;;;5051481;28;20434;-66
2021/01/30 06:55:04;;;;;;;26.33;23.13;;;1.60;99.90;;;;;;5061052;28;20957;-66
2021/01/30 06:57:32;;;;;;;27.83;22.83;;;1.60;99.90;;;;;;5051153;28;20430;-66
2021/01/30 07:00:06;;;;;;;25.60;22.43;;;1.60;99.90;;;;;;5051817;28;20444;-66
2021/01/30 07:02:37;;;;;;;25.50;22.80;;;1.60;99.90;;;;;;5052392;28;20422;-65
2021/01/30 07:05:34;;;;;;;23.93;21.00;;;1.60;99.90;;;;;;5055755;28;20433;-66
2021/01/30 07:08:41;;;;;;;26.13;20.57;;;1.60;99.90;;;;;;4974942;28;20462;-66
2021/01/30 07:11:34;;;;;;;22.53;19.57;;;1.60;99.90;;;;;;5058573;28;20447;-66
2021/01/30 07:14:18;;;;;;;26.90;20.63;;;1.60;99.90;;;;;;5053823;28;20422;-66
2021/01/30 07:17:10;;;;;;;22.07;19.57;;;1.60;99.90;;;;;;5055757;28;20415;-66
2021/01/30 07:19:54;;;;;;;23.80;19.97;;;1.60;99.90;;;;;;5055411;28;20425;-66
2021/01/30 07:22:41;;;;;;;23.33;19.93;;;1.60;99.90;;;;;;5052733;28;20426;-66
2021/01/30 07:25:32;;;;;;;30.40;19.13;;;1.70;99.90;;;;;;5057523;28;20533;-66
2021/01/30 07:28:04;;;;;;;20.93;18.27;;;1.60;99.90;;;;;;5054248;28;20477;-66
2021/01/30 07:30:32;;;;;;;20.10;18.10;;;1.70;99.90;;;;;;5052125;28;20448;-66
2021/01/30 07:33:08;;;;;;;20.90;17.83;;;1.60;99.90;;;;;;5054499;28;20448;-66
2021/01/30 07:35:44;;;;;;;16.50;14.77;;;1.60;99.90;;;;;;5064767;28;20870;-66
2021/01/30 07:38:16;;;;;;;18.73;16.73;;;1.60;99.90;;;;;;5063309;28;20426;-66
2021/01/30 07:41:05;;;;;;;17.60;15.90;;;1.60;99.90;;;;;;5055544;28;20896;-66
2021/01/30 07:43:38;;;;;;;17.17;15.47;;;1.60;99.90;;;;;;5060161;28;20489;-66
2021/01/30 07:46:03;;;;;;;15.93;14.40;;;1.60;99.90;;;;;;5058548;28;20469;-66
2021/01/30 07:48:38;;;;;;;16.87;15.23;;;1.60;99.90;;;;;;5060203;28;20514;-66
2021/01/30 07:51:11;;;;;;;13.80;12.50;;;1.60;99.90;;;;;;5055967;28;20163;-66
2021/01/30 07:53:38;;;;;;;14.53;13.00;;;1.60;99.90;;;;;;5056084;28;20442;-66
2021/01/30 07:56:21;;;;;;;15.53;13.93;;;1.60;99.90;;;;;;5061026;28;20854;-66
2021/01/30 07:59:26;;;;;;;14.53;13.23;;;1.50;99.90;;;;;;5052347;28;20434;-66
2021/01/30 08:01:59;;;;;;;14.60;13.20;;;1.50;99.90;;;;;;5055336;28;20454;-66
2021/01/30 08:04:25;;;;;;;14.30;12.83;;;1.50;99.90;;;;;;5059535;28;20433;-66
2021/01/30 08:07:13;;;;;;;14.50;13.10;;;1.50;99.90;;;;;;5055733;28;20800;-66
2021/01/30 08:10:04;;;;;;;13.43;12.10;;;1.60;99.90;;;;;;5059053;28;20668;-66
2021/01/30 08:13:00;;;;;;;14.03;12.73;;;1.60;99.90;;;;;;5057591;28;20426;-66
2021/01/30 08:15:49;;;;;;;13.87;12.40;;;1.60;99.90;;;;;;5055372;28;20943;-66
2021/01/30 08:18:31;;;;;;;13.70;12.30;;;1.60;99.90;;;;;;5063446;28;20430;-66
2021/01/30 08:21:10;;;;;;;13.03;11.83;;;1.60;99.90;;;;;;5052480;28;20434;-66
2021/01/30 08:23:58;;;;;;;10.90;10.00;;;1.70;99.90;;;;;;5057467;28;21105;-66
2021/01/30 08:26:32;;;;;;;12.83;11.57;;;1.70;99.90;;;;;;5055099;28;20447;-66
2021/01/30 08:29:28;;;;;;;10.70;9.60;;;1.70;99.90;;;;;;5057312;28;20428;-66
2021/01/30 08:32:00;;;;;;;12.20;11.03;;;1.70;99.90;;;;;;5068958;28;20431;-66
2021/01/30 08:34:29;;;;;;;13.73;12.53;;;1.60;99.90;;;;;;5057246;28;20954;-66
2021/01/30 08:37:20;;;;;;;13.00;11.80;;;1.70;99.90;;;;;;5051539;28;20448;-66
2021/01/30 08:40:01;;;;;;;11.23;10.23;;;1.70;99.90;;;;;;5056019;28;20500;-66
2021/01/30 08:42:33;;;;;;;12.20;11.10;;;1.70;99.90;;;;;;5053572;28;20988;-66
2021/01/30 08:45:03;;;;;;;12.47;11.37;;;1.70;99.90;;;;;;5054879;28;20453;-66
2021/01/30 08:47:56;;;;;;;11.80;10.80;;;1.80;99.90;;;;;;5053874;28;20452;-66
2021/01/30 08:50:30;;;;;;;12.37;11.27;;;1.80;99.90;;;;;;5041859;28;21086;-66
2021/01/30 08:53:12;;;;;;;11.50;10.50;;;1.80;99.90;;;;;;5054130;28;20439;-66
2021/01/30 08:55:43;;;;;;;11.53;10.43;;;1.80;99.90;;;;;;5056513;28;20437;-66
2021/01/30 08:58:32;;;;;;;11.53;10.43;;;1.80;99.90;;;;;;5054638;28;20426;-66
2021/01/30 09:01:06;;;;;;;11.53;10.43;;;1.90;99.90;;;;;;5064081;28;20511;-66
2021/01/30 09:04:02;;;;;;;10.80;9.73;;;1.80;99.90;;;;;;5053068;28;20447;-66
2021/01/30 09:06:40;;;;;;;13.47;10.97;;;1.90;99.90;;;;;;5040967;28;20505;-66
2021/01/30 09:09:13;;;;;;;11.50;10.43;;;1.90;99.90;;;;;;5052520;28;20434;-66
2021/01/30 09:11:47;;;;;;;12.10;11.00;;;1.90;99.90;;;;;;5057409;28;20432;-66
2021/01/30 09:14:19;;;;;;;11.03;10.03;;;1.90;99.90;;;;;;5054879;28;20498;-66
2021/01/30 09:16:56;;;;;;;11.50;10.40;;;2.00;99.90;;;;;;5052807;28;20435;-66
2021/01/30 09:19:49;;;;;;;12.60;11.60;;;2.00;99.90;;;;;;5057050;28;20458;-66
2021/01/30 09:23:10;;;;;;;11.80;10.70;;;2.00;99.90;;;;;;5059633;28;20434;-66
2021/01/30 14:35:03;;;;;;;5.03;2.90;;;4.20;99.90;;;;;;5069120;28;20503;-66
2021/01/30 14:37:28;;;;;;;3.40;3.10;;;4.20;99.90;;;;;;5058430;28;20813;-66
2021/01/30 14:39:54;;;;;;;4.10;3.70;;;4.20;99.90;;;;;;5052899;28;20507;-66
2021/01/30 14:42:19;;;;;;;5.13;3.97;;;4.20;99.90;;;;;;5057391;28;20294;-66
2021/01/30 14:44:46;;;;;;;3.60;3.20;;;4.30;99.90;;;;;;5056761;28;20178;-66
2021/01/30 14:47:13;;;;;;;3.13;2.83;;;4.30;99.90;;;;;;5056844;28;20188;-66
2021/01/30 14:49:39;;;;;;;3.33;2.90;;;4.30;99.90;;;;;;5060281;28;20465;-66
2021/01/30 14:52:04;;;;;;;2.83;2.57;;;4.30;99.90;;;;;;5055752;28;20465;-66
2021/01/30 14:54:30;;;;;;;3.73;3.07;;;4.30;99.90;;;;;;5060302;28;20182;-66
2021/01/30 14:56:56;;;;;;;4.87;3.80;;;4.30;99.90;;;;;;5061614;28;20691;-66
2021/01/30 14:59:21;;;;;;;5.17;3.20;;;4.30;99.90;;;;;;5054446;28;20569;-66
2021/01/30 15:01:47;;;;;;;4.87;3.80;;;4.40;99.90;;;;;;5055691;28;20690;-66
2021/01/30 15:04:13;;;;;;;6.07;5.47;;;4.30;99.90;;;;;;5060250;28;20263;-66
2021/01/30 15:06:39;;;;;;;5.63;4.37;;;4.30;99.90;;;;;;5056881;28;20240;-66
2021/01/30 15:09:04;;;;;;;3.13;2.83;;;4.30;99.90;;;;;;5055891;28;20439;-66
2021/01/30 15:11:30;;;;;;;3.30;2.83;;;4.20;99.90;;;;;;5060746;28;20179;-66
2021/01/30 15:13:55;;;;;;;4.53;3.70;;;4.20;99.90;;;;;;5057140;28;20172;-66
2021/01/30 15:16:21;;;;;;;3.17;2.87;;;4.10;99.90;;;;;;5054064;28;20173;-66
2021/01/30 15:18:46;;;;;;;3.60;3.30;;;4.10;99.90;;;;;;5062545;28;20181;-66
2021/01/30 15:21:12;;;;;;;4.03;3.63;;;4.00;99.90;;;;;;5062254;28;20654;-66
2021/01/30 15:23:39;;;;;;;3.63;3.27;;;4.00;99.90;;;;;;5060379;28;20177;-66
2021/01/30 15:26:05;;;;;;;3.37;3.07;;;3.90;99.90;;;;;;5059700;28;20176;-66
2021/01/30 15:28:31;;;;;;;3.70;3.03;;;3.90;99.90;;;;;;5058044;28;20923;-66
2021/01/30 15:30:56;;;;;;;4.43;3.23;;;3.80;99.90;;;;;;5055464;28;20435;-66
2021/01/30 15:33:22;;;;;;;7.70;6.00;;;3.80;99.90;;;;;;5055286;28;20212;-65
2021/01/30 15:35:47;;;;;;;5.60;4.80;;;3.80;99.90;;;;;;5056068;28;20176;-66
2021/01/30 15:38:13;;;;;;;5.40;4.80;;;3.80;99.90;;;;;;5055985;28;20200;-66
2021/01/30 15:40:39;;;;;;;7.60;5.70;;;3.70;99.90;;;;;;5064991;28;20570;-66
2021/01/30 15:43:04;;;;;;;5.30;4.30;;;3.70;99.90;;;;;;5056322;28;20199;-65
2021/01/30 15:45:31;;;;;;;3.37;2.97;;;3.60;99.90;;;;;;5052424;28;20234;-66
2021/01/30 15:47:57;;;;;;;4.30;3.73;;;3.50;99.90;;;;;;5055571;28;20239;-66
2021/01/30 15:50:23;;;;;;;2.93;2.63;;;3.50;99.90;;;;;;5075935;28;20491;-66
2021/01/30 15:52:48;;;;;;;4.93;2.90;;;3.50;99.90;;;;;;5058945;28;20172;-66
2021/01/30 15:55:19;;;;;;;3.50;3.20;;;3.40;99.90;;;;;;5058469;28;20474;-66
2021/01/30 15:57:45;;;;;;;4.60;3.83;;;3.40;99.90;;;;;;5056345;28;20177;-66
2021/01/30 16:00:16;;;;;;;10.20;5.43;;;3.40;99.90;;;;;;5055410;28;20631;-66
2021/01/30 16:02:42;;;;;;;5.43;3.80;;;3.40;99.90;;;;;;5056886;28;20580;-66
2021/01/30 16:05:08;;;;;;;6.33;5.10;;;3.40;99.90;;;;;;5065569;28;20521;-66
2021/01/30 16:07:33;;;;;;;6.80;4.73;;;3.30;99.90;;;;;;5055354;28;20200;-66
2021/01/30 16:09:59;;;;;;;10.63;8.27;;;3.30;99.90;;;;;;5055614;28;20431;-66
2021/01/30 16:12:24;;;;;;;7.67;6.73;;;3.30;99.90;;;;;;5054604;28;21007;-66
2021/01/30 16:14:50;;;;;;;4.97;4.47;;;3.30;99.90;;;;;;5052274;28;20226;-66
2021/01/30 16:17:15;;;;;;;6.50;4.50;;;3.30;99.90;;;;;;5056124;28;20661;-66
2021/01/30 16:19:41;;;;;;;5.30;4.57;;;3.30;99.90;;;;;;5062682;28;20387;-66
2021/01/30 16:22:07;;;;;;;5.20;4.70;;;3.30;99.90;;;;;;5063106;28;20179;-66
2021/01/30 16:24:32;;;;;;;6.30;4.40;;;3.30;99.90;;;;;;5053711;28;20267;-66
2021/01/30 16:27:03;;;;;;;5.43;4.23;;;3.30;99.90;;;;;;5054064;28;20653;-66
2021/01/30 16:29:33;;;;;;;3.93;3.40;;;3.30;99.90;;;;;;5069461;28;20641;-66
2021/01/30 16:31:59;;;;;;;4.23;3.10;;;3.30;99.90;;;;;;5059252;28;20429;-66
2021/01/30 16:34:25;;;;;;;5.10;4.47;;;3.20;99.90;;;;;;5052990;28;20467;-66
2021/01/30 16:36:50;;;;;;;5.03;4.40;;;3.30;99.90;;;;;;5058481;28;20175;-66
2021/01/30 16:39:16;;;;;;;4.80;3.93;;;3.20;99.90;;;;;;5053407;28;20200;-66
2021/01/30 16:41:42;;;;;;;5.70;5.10;;;3.20;99.90;;;;;;5068384;28;20215;-66
2021/01/30 16:44:07;;;;;;;5.83;5.23;;;3.20;99.90;;;;;;5056920;28;20207;-66
2021/01/30 16:46:33;;;;;;;5.53;4.93;;;3.20;99.90;;;;;;5055120;28;20210;-66
2021/01/30 16:48:58;;;;;;;4.83;4.43;;;3.20;99.90;;;;;;5055903;28;20634;-66
2021/01/30 16:51:24;;;;;;;4.70;4.20;;;3.20;99.90;;;;;;5053845;28;20541;-66
2021/01/30 16:53:49;;;;;;;6.40;5.80;;;3.10;99.90;;;;;;5054013;28;20176;-66
2021/01/30 16:56:15;;;;;;;8.93;7.30;;;3.10;99.90;;;;;;5055224;28;20651;-66
2021/01/30 16:58:41;;;;;;;8.27;6.77;;;3.10;99.90;;;;;;5054598;28;20570;-66
2021/01/30 17:01:11;;;;;;;5.80;4.90;;;3.00;99.90;;;;;;5054656;28;20507;-66
2021/01/30 17:03:40;;;;;;;13.23;9.43;;;3.00;99.90;;;;;;5056861;28;20944;-66
2021/01/30 17:06:06;;;;;;;8.87;7.47;;;3.00;99.90;;;;;;5055795;28;20596;-66
2021/01/30 17:08:31;;;;;;;5.50;4.97;;;3.00;99.90;;;;;;5053732;28;20458;-66
2021/01/30 17:10:57;;;;;;;12.50;8.67;;;3.00;99.90;;;;;;5056660;28;20464;-66
2021/01/30 17:13:23;;;;;;;10.90;7.40;;;2.90;99.90;;;;;;5053888;28;20513;-66
2021/01/30 17:15:48;;;;;;;7.70;5.47;;;2.90;99.90;;;;;;5055336;28;20271;-66
2021/01/30 17:18:14;;;;;;;7.70;6.50;;;2.90;99.90;;;;;;5053754;28;20719;-66
2021/01/30 17:20:39;;;;;;;6.43;5.20;;;2.90;99.90;;;;;;5056505;28;20210;-66
2021/01/30 17:23:05;;;;;;;6.47;5.47;;;2.80;99.90;;;;;;5065135;28;20652;-66
2021/01/30 17:25:31;;;;;;;9.73;7.70;;;2.80;99.90;;;;;;5055297;28;20460;-66
2021/01/30 17:27:56;;;;;;;10.43;8.23;;;2.80;99.90;;;;;;5058526;28;20210;-66
2021/01/30 17:30:24;;;;;;;5.90;4.80;;;2.80;99.90;;;;;;5054632;28;20438;-66
2021/01/30 17:32:50;;;;;;;7.80;6.90;;;2.80;99.90;;;;;;5052677;28;20167;-66
2021/01/30 17:35:16;;;;;;;10.53;7.90;;;2.80;99.90;;;;;;5054715;28;20805;-66
2021/01/30 17:37:43;;;;;;;13.10;8.37;;;2.70;99.90;;;;;;5052994;28;20318;-66
2021/01/30 17:40:10;;;;;;;12.07;9.83;;;2.70;99.90;;;;;;5053859;28;20231;-66
2021/01/30 17:42:35;;;;;;;8.70;7.63;;;2.80;99.90;;;;;;5052629;28;20464;-65
2021/01/30 17:45:01;;;;;;;6.80;6.20;;;2.70;99.90;;;;;;5053160;28;20824;-66
2021/01/30 17:47:27;;;;;;;6.03;4.63;;;2.70;99.90;;;;;;5058117;28;20249;-66
2021/01/30 17:49:52;;;;;;;6.50;5.90;;;2.70;99.90;;;;;;5052206;28;20182;-66
2021/01/30 17:52:18;;;;;;;6.53;5.83;;;2.70;99.90;;;;;;5059406;28;20167;-66
2021/01/30 17:54:43;;;;;;;5.93;5.40;;;2.70;99.90;;;;;;5059591;28;20169;-66
2021/01/30 17:57:09;;;;;;;5.77;5.20;;;2.60;99.90;;;;;;5052682;28;20218;-66
2021/01/30 17:59:34;;;;;;;11.90;10.00;;;2.60;99.90;;;;;;5054576;28;20513;-66
2021/01/30 18:02:00;;;;;;;6.07;5.47;;;2.60;99.90;;;;;;5061494;28;20184;-66
2021/01/30 18:04:25;;;;;;;6.67;5.40;;;2.70;99.90;;;;;;5052372;28;20191;-66
2021/01/30 18:06:51;;;;;;;8.00;7.10;;;2.70;99.90;;;;;;5057702;28;20257;-66
2021/01/30 18:09:17;;;;;;;7.60;6.80;;;2.60;99.90;;;;;;5053037;28;20190;-66
2021/01/30 18:11:43;;;;;;;8.23;7.43;;;2.60;99.90;;;;;;5055767;28;20541;-66
2021/01/30 18:14:08;;;;;;;8.33;6.73;;;2.60;99.90;;;;;;5055828;28;20447;-66